createdAt,value
2022-12-19T00:01:33.091Z,101842.44
2022-12-19T00:04:02.245Z,101837.34
2022-12-19T00:06:33.960Z,101834.13
2022-12-19T00:09:00.771Z,101827.44
2022-12-19T00:11:28.569Z,101822.38
2022-12-19T00:13:55.061Z,101806.31
2022-12-19T00:16:24.250Z,101806.59
2022-12-19T00:18:55.369Z,101805.25
2022-12-19T00:21:25.963Z,101803.66
2022-12-19T00:23:52.635Z,101814.88
2022-12-19T00:26:30.968Z,101827.44
2022-12-19T00:29:02.578Z,101815.13
2022-12-19T00:31:31.313Z,101819.44
2022-12-19T00:33:58.258Z,101809.53
2022-12-19T00:36:27.554Z,101799.09
2022-12-19T00:38:55.623Z,101805.53
2022-12-19T00:41:31.234Z,101795.09
2022-12-19T00:44:03.247Z,101791.88
2022-12-19T00:46:31.684Z,101789.22
2022-12-19T00:48:58.215Z,101783.09
2022-12-19T00:51:27.489Z,101767.56
2022-12-19T00:53:55.992Z,101759.84
2022-12-19T00:56:31.071Z,101766.78
2022-12-19T00:59:00.248Z,101768.91
2022-12-19T01:01:33.255Z,101757.94
2022-12-19T01:06:48.350Z,101770.28
2022-12-19T01:09:14.827Z,101767.06
2022-12-19T01:12:00.023Z,101750.22
2022-12-19T01:14:26.710Z,101762.28
2022-12-19T01:16:53.291Z,101743.53
2022-12-19T01:19:20.670Z,101741.91
2022-12-19T01:21:47.156Z,101739.53
2022-12-19T01:24:15.212Z,101744.34
2022-12-19T01:26:45.947Z,101751.03
2022-12-19T01:29:12.401Z,101756.66
2022-12-19T01:31:38.925Z,101739.53
2022-12-19T01:34:05.436Z,101742.19
2022-12-19T01:36:32.060Z,101724.25
2022-12-19T01:38:58.588Z,101726.16
2022-12-19T01:41:25.180Z,101729.34
2022-12-19T01:44:00.260Z,101723.50
2022-12-19T01:46:34.627Z,101721.34
2022-12-19T01:49:02.580Z,101730.69
2022-12-19T01:51:38.811Z,101724.00
2022-12-19T01:54:10.098Z,101715.16
2022-12-19T01:56:40.673Z,101714.91
2022-12-19T01:59:12.641Z,101715.19
2022-12-19T02:01:50.104Z,101695.38
2022-12-19T02:04:20.286Z,101692.13
2022-12-19T02:06:48.275Z,101697.22
2022-12-19T02:09:15.529Z,101694.81
2022-12-19T02:11:42.057Z,101692.94
2022-12-19T02:14:08.699Z,101691.84
2022-12-19T02:17:12.706Z,101691.56
2022-12-19T02:19:39.120Z,101683.03
2022-12-19T02:22:16.081Z,101678.19
2022-12-19T02:25:32.880Z,101673.88
2022-12-19T02:28:29.883Z,101669.31
2022-12-19T02:31:16.597Z,101659.41
2022-12-19T02:33:56.560Z,101658.34
2022-12-19T02:36:32.365Z,101649.78
2022-12-19T02:39:11.699Z,101646.28
2022-12-19T02:41:58.305Z,101653.50
2022-12-19T02:44:43.028Z,101650.53
2022-12-19T02:47:10.126Z,101645.44
2022-12-19T02:49:38.403Z,101625.09
2022-12-19T02:52:20.153Z,101626.94
2022-12-19T02:54:49.397Z,101619.41
2022-12-19T02:57:21.958Z,101616.47
2022-12-19T02:59:57.139Z,101612.19
2022-12-19T03:02:54.360Z,101611.38
2022-12-19T03:05:39.050Z,101613.25
2022-12-19T03:08:19.103Z,101605.22
2022-12-19T03:10:53.009Z,101604.94
2022-12-19T03:13:28.424Z,101611.63
2022-12-19T03:15:55.136Z,101605.97
2022-12-19T03:18:21.728Z,101606.53
2022-12-19T03:21:11.372Z,101610.53
2022-12-19T03:23:38.623Z,101595.75
2022-12-19T03:26:17.722Z,101597.34
2022-12-19T03:29:03.090Z,101603.78
2022-12-19T03:31:33.366Z,101599.22
2022-12-19T03:34:04.864Z,101595.47
2022-12-19T03:36:37.297Z,101588.72
2022-12-19T03:39:07.145Z,101576.13
2022-12-19T03:41:55.040Z,101573.16
2022-12-19T03:44:24.101Z,101576.63
2022-12-19T03:46:58.411Z,101571.78
2022-12-19T03:49:26.164Z,101574.44
2022-12-19T03:51:59.615Z,101570.97
2022-12-19T03:54:31.119Z,101586.19
2022-12-19T03:57:09.417Z,101567.44
2022-12-19T03:59:46.841Z,101566.91
2022-12-19T04:02:15.824Z,101555.88
2022-12-19T04:04:46.103Z,101557.47
2022-12-19T04:07:14.888Z,101561.25
2022-12-19T04:09:43.674Z,101562.03
2022-12-19T04:12:16.018Z,101558.78
2022-12-19T04:14:42.924Z,101566.25
2022-12-19T04:17:38.153Z,101557.13
2022-12-19T04:20:08.507Z,101545.06
2022-12-19T04:23:00.040Z,101547.97
2022-12-19T04:25:31.043Z,101546.66
2022-12-19T04:28:04.100Z,101547.97
2022-12-19T04:30:36.744Z,101564.56
2022-12-19T04:33:03.606Z,101552.50
2022-12-19T04:35:30.208Z,101540.91
2022-12-19T04:37:56.740Z,101558.59
2022-12-19T04:40:23.156Z,101543.31
2022-12-19T04:42:49.610Z,101559.38
2022-12-19T04:45:16.693Z,101554.00
2022-12-19T04:47:43.337Z,101549.94
2022-12-19T04:50:10.269Z,101549.66
2022-12-19T04:52:36.819Z,101534.63
2022-12-19T04:55:03.581Z,101534.03
2022-12-19T04:57:31.576Z,101536.72
2022-12-19T04:59:58.371Z,101531.56
2022-12-19T05:02:25.517Z,101528.06
2022-12-19T05:04:52.234Z,101523.19
2022-12-19T05:07:20.104Z,101526.66
2022-12-19T05:09:46.632Z,101526.88
2022-12-19T05:12:13.078Z,101530.59
2022-12-19T05:14:39.531Z,101523.84
2022-12-19T05:17:05.958Z,101525.69
2022-12-19T05:19:32.411Z,101519.16
2022-12-19T05:21:58.926Z,101519.13
2022-12-19T05:24:25.464Z,101503.22
2022-12-19T05:26:51.993Z,101510.72
2022-12-19T05:29:18.630Z,101503.16
2022-12-19T05:31:45.245Z,101500.69
2022-12-19T05:34:11.896Z,101506.03
2022-12-19T05:36:39.484Z,101506.47
2022-12-19T05:39:05.974Z,101504.00
2022-12-19T05:41:32.471Z,101508.53
2022-12-19T05:43:58.934Z,101504.38
2022-12-19T05:46:25.616Z,101503.22
2022-12-19T05:48:52.098Z,101495.59
2022-12-19T05:51:19.068Z,101494.66
2022-12-19T05:53:45.585Z,101501.34
2022-12-19T05:56:17.613Z,101502.56
2022-12-19T05:58:45.091Z,101504.66
2022-12-19T06:01:26.970Z,101498.38
2022-12-19T06:03:55.161Z,101497.16
2022-12-19T06:06:25.475Z,101504.69
2022-12-19T06:08:56.242Z,101508.88
2022-12-19T06:11:23.492Z,101511.97
2022-12-19T06:13:50.007Z,101515.41
2022-12-19T06:16:18.879Z,101514.22
2022-12-19T06:18:46.209Z,101512.84
2022-12-19T06:21:18.239Z,101503.88
2022-12-19T06:23:45.276Z,101508.38
2022-12-19T06:26:18.602Z,101495.41
2022-12-19T06:28:46.200Z,101489.97
2022-12-19T06:31:13.473Z,101494.16
2022-12-19T06:33:40.060Z,101485.75
2022-12-19T06:36:24.477Z,101495.47
2022-12-19T06:38:51.935Z,101501.34
2022-12-19T06:41:38.172Z,101491.28
2022-12-19T06:44:07.292Z,101492.91
2022-12-19T06:46:34.784Z,101504.97
2022-12-19T06:49:02.080Z,101504.59
2022-12-19T06:51:28.598Z,101512.06
2022-12-19T06:53:55.550Z,101511.16
2022-12-19T06:56:22.537Z,101509.00
2022-12-19T06:58:49.377Z,101503.00
2022-12-19T07:01:24.688Z,101504.28
2022-12-19T07:03:51.406Z,101498.59
2022-12-19T07:06:17.894Z,101505.00
2022-12-19T07:08:44.301Z,101504.69
2022-12-19T07:11:10.877Z,101497.41
2022-12-19T07:13:37.327Z,101504.09
2022-12-19T07:16:05.537Z,101503.81
2022-12-19T07:18:38.159Z,101516.06
2022-12-19T07:21:06.621Z,101516.06
2022-12-19T07:23:35.079Z,101518.47
2022-12-19T07:26:01.786Z,101525.47
2022-12-19T07:28:28.328Z,101523.44
2022-12-19T07:30:54.813Z,101515.69
2022-12-19T07:33:22.076Z,101519.38
2022-12-19T07:35:48.948Z,101515.59
2022-12-19T07:38:15.723Z,101523.38
2022-12-19T07:40:42.162Z,101526.06
2022-12-19T07:43:08.604Z,101533.53
2022-12-19T07:45:37.614Z,101539.41
2022-12-19T07:48:06.365Z,101538.03
2022-12-19T07:50:33.456Z,101535.84
2022-12-19T07:52:59.936Z,101517.94
2022-12-19T07:55:27.149Z,101528.72
2022-12-19T07:57:55.433Z,101531.16
2022-12-19T08:00:22.567Z,101534.66
2022-12-19T08:02:49.485Z,101538.63
2022-12-19T08:05:16.345Z,101542.00
2022-12-19T08:07:42.814Z,101545.78
2022-12-19T08:10:11.522Z,101545.22
2022-12-19T08:12:38.182Z,101549.19
2022-12-19T08:15:05.798Z,101555.88
2022-12-19T08:17:33.998Z,101548.88
2022-12-19T08:20:00.638Z,101552.38
2022-12-19T08:22:29.652Z,101559.38
2022-12-19T08:24:56.180Z,101543.97
2022-12-19T08:27:22.674Z,101549.09
2022-12-19T08:29:49.307Z,101548.78
2022-12-19T08:32:20.858Z,101549.28
2022-12-19T08:34:48.138Z,101555.16
2022-12-19T08:37:14.681Z,101556.47
2022-12-19T08:39:41.121Z,101555.38
2022-12-19T08:42:07.673Z,101567.63
2022-12-19T08:44:34.145Z,101561.13
2022-12-19T08:47:00.643Z,101561.13
2022-12-19T08:49:27.092Z,101560.34
2022-12-19T08:51:53.533Z,101559.25
2022-12-19T08:54:20.040Z,101552.78
2022-12-19T08:56:47.251Z,101563.56
2022-12-19T08:59:15.804Z,101560.56
2022-12-19T09:01:51.084Z,101564.84
2022-12-19T09:05:53.254Z,101564.53
2022-12-19T09:07:04.133Z,101563.44
2022-12-19T09:09:30.551Z,101566.94
2022-12-19T09:11:56.958Z,101568.34
2022-12-19T09:14:23.408Z,101568.53
2022-12-19T09:16:49.939Z,101557.44
2022-12-19T09:19:16.947Z,101558.72
2022-12-19T09:21:44.210Z,101569.84
2022-12-19T09:24:11.222Z,101571.91
2022-12-19T09:26:42.219Z,101570.31
2022-12-19T09:29:19.751Z,101567.00
2022-12-19T09:31:47.681Z,101572.09
2022-12-19T09:34:16.975Z,101566.91
2022-12-19T09:36:43.647Z,101571.38
2022-12-19T09:39:10.186Z,101559.78
2022-12-19T09:42:00.891Z,101568.38
2022-12-19T09:44:37.433Z,101578.56
2022-12-19T09:47:13.348Z,101578.56
2022-12-19T09:49:43.426Z,101577.16
2022-12-19T09:52:25.654Z,101576.84
2022-12-19T09:55:02.901Z,101585.25
2022-12-19T09:57:52.627Z,101577.47
2022-12-19T10:00:21.731Z,101570.66
2022-12-19T10:03:41.444Z,101565.47
2022-12-19T10:07:10.429Z,101574.84
2022-12-19T10:10:09.817Z,101578.81
2022-12-19T10:12:42.764Z,101581.72
2022-12-19T10:15:29.544Z,101578.72
2022-12-19T10:18:18.374Z,101570.00
2022-12-19T10:21:02.976Z,101563.69
2022-12-19T10:24:14.130Z,101575.78
2022-12-19T10:26:59.215Z,101569.16
2022-12-19T10:29:56.897Z,101559.03
2022-12-19T10:33:19.849Z,101568.91
2022-12-19T10:36:02.524Z,101567.00
2022-12-19T10:38:49.055Z,101562.09
2022-12-19T10:41:25.011Z,101571.31
2022-12-19T10:44:05.724Z,101574.69
2022-12-19T10:46:38.371Z,101568.50
2022-12-19T10:49:13.105Z,101570.56
2022-12-19T10:51:40.766Z,101579.47
2022-12-19T10:54:07.392Z,101578.84
2022-12-19T10:56:37.721Z,101571.25
2022-12-19T10:59:16.223Z,101575.34
2022-12-19T11:01:42.829Z,101582.34
2022-12-19T11:04:33.130Z,101571.25
2022-12-19T11:07:02.655Z,101570.13
2022-12-19T11:09:38.566Z,101576.34
2022-12-19T11:13:23.698Z,101574.75
2022-12-19T11:19:37.833Z,101553.63
2022-12-19T11:24:16.307Z,101547.91
2022-12-19T11:29:26.152Z,101547.91
2022-12-19T11:29:43.288Z,101535.88
2022-12-19T11:29:54.114Z,101542.97
2022-12-19T11:32:42.664Z,101550.53
2022-12-19T11:35:37.210Z,101536.72
2022-12-19T11:38:06.613Z,101533.84
2022-12-19T11:40:44.632Z,101541.38
2022-12-19T11:43:43.771Z,101534.84
2022-12-19T11:46:22.311Z,101545.34
2022-12-19T11:49:09.818Z,101538.81
2022-12-19T11:52:03.104Z,101543.44
2022-12-19T11:54:58.856Z,101539.31
2022-12-19T11:57:26.498Z,101545.81
2022-12-19T11:59:57.403Z,101530.59
2022-12-19T12:02:50.753Z,101544.09
2022-12-19T12:05:44.203Z,101542.69
2022-12-19T12:10:12.837Z,101542.38
2022-12-19T12:18:45.795Z,101541.44
2022-12-19T12:22:34.226Z,101523.00
2022-12-19T12:30:16.362Z,101542.09
2022-12-19T12:31:05.268Z,101523.38
2022-12-19T12:31:39.132Z,101507.66
2022-12-19T12:31:44.251Z,101504.94
2022-12-19T12:31:58.467Z,101521.63
2022-12-19T12:35:48.781Z,101504.31
2022-12-19T12:39:20.960Z,101486.66
2022-12-19T12:42:04.124Z,101483.81
2022-12-19T12:44:45.939Z,101479.69
2022-12-19T12:47:30.165Z,101470.63
2022-12-19T12:50:17.188Z,101470.00
2022-12-19T12:52:48.051Z,101464.09
2022-12-19T12:55:23.664Z,101459.81
2022-12-19T12:57:50.210Z,101453.75
2022-12-19T13:00:19.500Z,101455.84
2022-12-19T13:02:51.772Z,101446.63
2022-12-19T13:05:46.164Z,101457.91
2022-12-19T13:08:34.060Z,101447.25
2022-12-19T13:11:45.201Z,101449.34
2022-12-19T13:14:37.127Z,101453.63
2022-12-19T13:17:45.199Z,101442.81
2022-12-19T13:20:19.017Z,101441.03
2022-12-19T13:23:03.845Z,101446.13
2022-12-19T13:25:36.735Z,101454.75
2022-12-19T13:28:03.167Z,101453.16
2022-12-19T13:30:31.555Z,101447.75
2022-12-19T13:33:01.063Z,101445.84
2022-12-19T13:36:33.331Z,101429.91
2022-12-19T13:40:02.200Z,101418.47
2022-12-19T13:41:44.409Z,101419.72
2022-12-19T13:44:12.012Z,101416.69
2022-12-19T13:46:41.460Z,101397.28
2022-12-19T13:49:28.856Z,101403.16
2022-12-19T13:52:00.062Z,101389.50
2022-12-19T13:54:34.560Z,101384.53
2022-12-19T13:57:08.945Z,101382.16
2022-12-19T13:59:38.930Z,101383.09
2022-12-19T14:02:26.644Z,101377.88
2022-12-19T14:04:53.334Z,101392.34
2022-12-19T14:07:36.156Z,101396.94
2022-12-19T14:11:29.041Z,101394.56
2022-12-19T14:13:57.268Z,101396.94
2022-12-19T14:15:57.601Z,101395.38
2022-12-19T14:18:44.391Z,101395.69
2022-12-19T14:21:31.072Z,101394.09
2022-12-19T14:24:20.412Z,101397.59
2022-12-19T14:28:23.522Z,101389.50
2022-12-19T14:30:28.806Z,101385.19
2022-12-19T14:33:46.477Z,101377.53
2022-12-19T14:36:07.716Z,101374.97
2022-12-19T14:39:20.765Z,101369.56
2022-12-19T14:41:39.722Z,101375.28
2022-12-19T14:52:25.407Z,101363.69
2022-12-19T14:53:51.487Z,101365.59
2022-12-19T14:54:01.528Z,101371.94
2022-12-19T14:54:29.754Z,101374.97
2022-12-19T14:56:08.954Z,101379.59
2022-12-19T14:58:54.289Z,101381.97
2022-12-19T15:01:23.474Z,101393.13
2022-12-19T15:04:48.139Z,101397.41
2022-12-19T15:07:08.952Z,101394.41
2022-12-19T15:11:07.401Z,101395.19
2022-12-19T15:14:49.481Z,101387.38
2022-12-19T15:16:01.624Z,101409.53
2022-12-19T15:18:34.164Z,101420.34
2022-12-19T15:21:08.032Z,101411.91
2022-12-19T15:23:34.866Z,101413.34
2022-12-19T15:26:06.440Z,101423.34
2022-12-19T15:28:51.494Z,101420.66
2022-12-19T15:31:35.136Z,101426.56
2022-12-19T15:36:58.206Z,101414.63
2022-12-19T15:39:26.014Z,101410.47
2022-12-19T15:41:54.796Z,101394.56
2022-12-19T15:44:34.230Z,101400.09
2022-12-19T15:47:02.406Z,101394.69
2022-12-19T15:49:28.977Z,101398.97
2022-12-19T15:51:55.444Z,101406.00
2022-12-19T15:54:47.599Z,101408.41
2022-12-19T15:57:34.158Z,101413.00
2022-12-19T16:00:12.796Z,101406.81
2022-12-19T16:05:29.210Z,101388.16
2022-12-19T16:07:57.000Z,101379.59
2022-12-19T16:10:23.548Z,101392.50
2022-12-19T16:12:53.124Z,101389.28
2022-12-19T16:15:25.886Z,101391.69
2022-12-19T16:17:53.197Z,101383.88
2022-12-19T16:20:23.671Z,101395.50
2022-12-19T16:22:50.317Z,101404.41
2022-12-19T16:25:17.224Z,101405.53
2022-12-19T16:27:44.635Z,101410.00
2022-12-19T16:30:22.633Z,101414.63
2022-12-19T16:32:49.786Z,101418.13
2022-12-19T16:35:34.304Z,101426.84
2022-12-19T16:38:05.777Z,101426.06
2022-12-19T16:40:32.334Z,101416.97
2022-12-19T16:43:05.270Z,101415.06
2022-12-19T16:45:33.634Z,101418.56
2022-12-19T16:48:00.231Z,101411.72
2022-12-19T16:50:29.866Z,101408.22
2022-12-19T16:52:57.220Z,101395.47
2022-12-19T16:55:25.503Z,101395.16
2022-12-19T16:57:55.904Z,101386.88
2022-12-19T17:00:23.653Z,101384.97
2022-12-19T17:02:53.268Z,101379.22
2022-12-19T17:05:30.978Z,101389.09
2022-12-19T17:07:58.246Z,101391.00
2022-12-19T17:10:30.342Z,101389.09
2022-12-19T17:12:58.959Z,101386.72
2022-12-19T17:15:36.528Z,101387.50
2022-12-19T17:18:10.188Z,101381.63
2022-12-19T17:20:43.311Z,101384.81
2022-12-19T17:23:16.309Z,101369.34
2022-12-19T17:25:43.568Z,101377.94
2022-12-19T17:28:10.882Z,101380.31
2022-12-19T17:30:38.038Z,101381.44
2022-12-19T17:33:05.225Z,101372.19
2022-12-19T17:35:35.643Z,101389.56
2022-12-19T17:38:02.425Z,101387.97
2022-12-19T17:40:32.447Z,101384.94
2022-12-19T17:42:59.841Z,101382.25
2022-12-19T17:45:29.559Z,101364.41
2022-12-19T17:48:02.841Z,101373.31
2022-12-19T17:50:37.850Z,101379.84
2022-12-19T17:53:05.498Z,101386.53
2022-12-19T17:55:33.384Z,101384.94
2022-12-19T17:57:59.963Z,101389.56
2022-12-19T18:00:30.717Z,101394.19
2022-12-19T18:03:05.398Z,101382.09
2022-12-19T18:05:35.797Z,101390.22
2022-12-19T18:08:03.126Z,101382.91
2022-12-19T18:10:31.560Z,101387.66
2022-12-19T18:12:58.573Z,101380.66
2022-12-19T18:15:25.579Z,101390.38
2022-12-19T18:17:53.632Z,101389.44
2022-12-19T18:20:31.456Z,101402.78
2022-12-19T18:22:59.740Z,101400.06
2022-12-19T18:25:29.412Z,101398.66
2022-12-19T18:27:55.859Z,101394.03
2022-12-19T18:30:23.503Z,101395.63
2022-12-19T18:32:57.546Z,101386.50
2022-12-19T18:35:38.317Z,101395.59
2022-12-19T18:38:24.106Z,101395.59
2022-12-19T18:40:54.641Z,101395.09
2022-12-19T18:43:21.089Z,101387.78
2022-12-19T18:45:51.524Z,101381.41
2022-12-19T18:48:29.025Z,101373.28
2022-12-19T18:50:57.107Z,101378.69
2022-12-19T18:53:31.244Z,101370.69
2022-12-19T18:56:02.191Z,101369.59
2022-12-19T18:58:28.963Z,101376.09
2022-12-19T19:00:59.416Z,101382.03
2022-12-19T19:03:32.791Z,101392.06
2022-12-19T19:05:59.655Z,101381.81
2022-12-19T19:08:29.858Z,101386.91
2022-12-19T19:10:57.334Z,101397.13
2022-12-19T19:13:25.949Z,101406.03
2022-12-19T19:15:59.631Z,101406.38
2022-12-19T19:18:30.743Z,101409.22
2022-12-19T19:21:01.289Z,101418.31
2022-12-19T19:23:33.754Z,101421.66
2022-12-19T19:26:00.190Z,101429.78
2022-12-19T19:28:26.681Z,101430.13
2022-12-19T19:30:54.647Z,101429.78
2022-12-19T19:33:24.797Z,101431.22
2022-12-19T19:35:58.304Z,101431.09
2022-12-19T19:38:25.127Z,101437.78
2022-12-19T19:40:51.716Z,101447.16
2022-12-19T19:43:18.148Z,101445.25
2022-12-19T19:45:44.735Z,101442.53
2022-12-19T19:48:11.276Z,101440.81
2022-12-19T19:50:38.360Z,101443.69
2022-12-19T19:53:04.831Z,101435.09
2022-12-19T19:55:31.410Z,101439.88
2022-12-19T19:57:58.056Z,101440.84
2022-12-19T20:00:24.589Z,101443.88
2022-12-19T20:02:51.263Z,101437.34
2022-12-19T20:05:18.382Z,101444.69
2022-12-19T20:07:45.199Z,101441.97
2022-12-19T20:10:12.207Z,101456.31
2022-12-19T20:12:38.856Z,101454.53
2022-12-19T20:15:06.155Z,101452.63
2022-12-19T20:17:32.635Z,101444.84
2022-12-19T20:19:59.128Z,101448.34
2022-12-19T20:22:25.789Z,101442.44
2022-12-19T20:24:52.278Z,101447.88
2022-12-19T20:27:18.789Z,101452.47
2022-12-19T20:29:45.314Z,101455.81
2022-12-19T20:32:12.846Z,101460.94
2022-12-19T20:34:39.302Z,101440.69
2022-12-19T20:37:05.874Z,101438.31
2022-12-19T20:39:34.173Z,101435.59
2022-12-19T20:42:00.755Z,101440.88
2022-12-19T20:44:27.291Z,101449.94
2022-12-19T20:46:53.852Z,101437.38
2022-12-19T20:49:21.480Z,101436.59
2022-12-19T20:51:47.917Z,101441.19
2022-12-19T20:54:15.724Z,101434.66
2022-12-19T20:56:42.598Z,101441.66
2022-12-19T20:59:09.829Z,101454.09
2022-12-19T21:01:36.414Z,101443.09
2022-12-19T21:04:03.438Z,101445.78
2022-12-19T21:06:30.141Z,101451.69
2022-12-19T21:08:57.317Z,101450.41
2022-12-19T21:11:26.271Z,101444.84
2022-12-19T21:13:53.355Z,101448.03
2022-12-19T21:16:22.652Z,101443.41
2022-12-19T21:18:51.062Z,101449.31
2022-12-19T21:21:21.669Z,101435.94
2022-12-19T21:23:49.217Z,101431.78
2022-12-19T21:26:16.331Z,101438.94
2022-12-19T21:28:43.387Z,101434.63
2022-12-19T21:31:17.932Z,101425.41
2022-12-19T21:33:45.368Z,101434.78
2022-12-19T21:36:19.297Z,101423.81
2022-12-19T21:38:47.486Z,101428.09
2022-12-19T21:41:18.836Z,101426.19
2022-12-19T21:43:47.542Z,101430.94
2022-12-19T21:46:15.703Z,101430.28
2022-12-19T21:48:44.379Z,101418.84
2022-12-19T21:51:12.382Z,101427.44
2022-12-19T21:53:39.824Z,101433.63
2022-12-19T21:56:23.454Z,101438.59
2022-12-19T21:58:53.938Z,101425.97
2022-12-19T22:01:21.039Z,101429.97
2022-12-19T22:03:48.149Z,101438.09
2022-12-19T22:06:28.413Z,101428.06
2022-12-19T22:08:55.850Z,101432.81
2022-12-19T22:11:22.849Z,101423.09
2022-12-19T22:13:49.964Z,101424.84
2022-12-19T22:16:16.890Z,101419.41
2022-12-19T22:18:43.987Z,101413.19
2022-12-19T22:21:15.245Z,101406.19
2022-12-19T22:23:42.230Z,101407.66
2022-12-19T22:26:21.575Z,101397.47
2022-12-19T22:28:50.644Z,101402.91
2022-12-19T22:31:26.273Z,101401.13
2022-12-19T22:34:19.766Z,101391.44
2022-12-19T22:36:48.044Z,101392.56
2022-12-19T22:39:19.576Z,101402.59
2022-12-19T22:41:46.701Z,101390.31
2022-12-19T22:44:24.010Z,101382.50
2022-12-19T22:46:51.574Z,101385.69
2022-12-19T22:49:18.295Z,101380.44
2022-12-19T22:51:45.141Z,101368.31
2022-12-19T22:54:12.838Z,101371.81
2022-12-19T22:56:39.832Z,101370.69
2022-12-19T22:59:08.201Z,101370.69
2022-12-19T23:01:38.620Z,101362.56
2022-12-19T23:04:07.571Z,101354.59
2022-12-19T23:06:35.939Z,101360.03
2022-12-19T23:09:03.522Z,101363.53
2022-12-19T23:11:36.446Z,101359.22
2022-12-19T23:14:04.746Z,101366.69
2022-12-19T23:16:31.195Z,101364.94
2022-12-19T23:18:57.675Z,101375.13
2022-12-19T23:21:25.640Z,101361.56
2022-12-19T23:23:54.680Z,101360.44
2022-12-19T23:26:32.845Z,101372.41
2022-12-19T23:29:01.593Z,101364.75
2022-12-19T23:31:28.723Z,101378.75
2022-12-19T23:33:55.937Z,101368.41
2022-12-19T23:37:00.530Z,101374.63
2022-12-19T23:39:11.090Z,101366.50
2022-12-19T23:41:37.699Z,101371.13
2022-12-19T23:44:04.372Z,101369.00
2022-12-19T23:46:30.877Z,101384.28
2022-12-19T23:48:57.489Z,101365.91
2022-12-19T23:51:27.083Z,101372.63
2022-12-19T23:53:55.482Z,101359.34
2022-12-19T23:56:24.607Z,101357.44
2022-12-19T23:58:51.884Z,101347.22
